Time;durP1;ratioP1;P1;durP2;ratioP2;P2;SDS_P1;SDS_P2;PMS_P1;PMS_P2;Temp;Humidity;BMP_temperature;BMP_pressure;BME280_temperature;BME280_humidity;BME280_pressure;Samples;Min_cycle;Max_cycle;Signal;HPM_P1;HPM_P2
2022/09/04 00:00:07;;;;;;;7.20;4.80;;;12.30;99.90;;;;;;4387805;28;657874;-69
2022/09/04 00:03:14;;;;;;;7.73;5.10;;;12.30;99.90;;;;;;4404068;28;657544;-67
2022/09/04 00:06:05;;;;;;;6.07;4.70;;;12.30;99.90;;;;;;4389303;28;657679;-69
2022/09/04 00:09:13;;;;;;;9.70;5.43;;;12.20;99.90;;;;;;4381728;28;658016;-69
2022/09/04 00:12:04;;;;;;;6.70;4.97;;;12.20;99.90;;;;;;4366845;28;657359;-69
2022/09/04 00:14:54;;;;;;;8.50;5.73;;;12.20;99.90;;;;;;4384903;28;658287;-69
2022/09/04 00:17:45;;;;;;;8.27;5.93;;;12.20;99.90;;;;;;4385697;28;657841;-69
2022/09/04 00:20:36;;;;;;;7.97;5.97;;;12.20;99.90;;;;;;4388496;28;658558;-69
2022/09/04 00:23:25;;;;;;;8.13;6.07;;;12.20;99.90;;;;;;4385025;28;657548;-69
2022/09/04 00:26:17;;;;;;;10.67;5.83;;;12.20;99.90;;;;;;4384070;28;658919;-68
2022/09/04 00:29:06;;;;;;;10.57;6.30;;;12.20;99.90;;;;;;4387776;28;659738;-69
2022/09/04 00:31:59;;;;;;;6.97;5.77;;;12.20;99.90;;;;;;4380892;28;658677;-69
2022/09/04 00:34:53;;;;;;;9.17;6.43;;;12.20;99.90;;;;;;4387192;28;657441;-69
2022/09/04 00:37:44;;;;;;;7.77;5.63;;;12.20;99.90;;;;;;4370305;28;657729;-67
2022/09/04 00:40:32;;;;;;;9.03;5.67;;;12.20;99.90;;;;;;4388339;28;657797;-68
2022/09/04 00:43:44;;;;;;;7.43;5.87;;;12.20;99.90;;;;;;4407546;28;657759;-66
2022/09/04 00:47:05;;;;;;;7.90;5.80;;;12.20;99.90;;;;;;4364840;28;657850;-69
2022/09/04 00:50:13;;;;;;;10.70;5.60;;;12.20;99.90;;;;;;4367062;28;657972;-69
2022/09/04 00:53:23;;;;;;;7.63;5.80;;;12.20;99.90;;;;;;4366569;28;659446;-68
2022/09/04 00:56:41;;;;;;;7.07;5.30;;;12.30;99.90;;;;;;4366007;28;657992;-69
2022/09/04 00:59:38;;;;;;;8.07;5.00;;;12.30;99.90;;;;;;4362951;28;657806;-70
2022/09/04 01:02:32;;;;;;;8.57;4.90;;;12.30;99.90;;;;;;4366883;28;658533;-67
2022/09/04 01:05:26;;;;;;;7.37;5.47;;;12.30;99.90;;;;;;4386167;28;657962;-68
2022/09/04 01:08:19;;;;;;;7.07;5.27;;;12.30;99.90;;;;;;4387863;28;658460;-68
2022/09/04 01:11:09;;;;;;;6.67;5.20;;;12.30;99.90;;;;;;4386646;28;657845;-69
2022/09/04 01:14:01;;;;;;;7.10;5.40;;;12.40;99.90;;;;;;4386945;28;657243;-69
2022/09/04 01:16:49;;;;;;;10.47;5.60;;;12.40;99.90;;;;;;4391255;28;658679;-68
2022/09/04 01:19:46;;;;;;;7.17;5.53;;;12.40;99.90;;;;;;4390214;28;659645;-69
2022/09/04 01:22:55;;;;;;;9.67;5.50;;;12.40;99.90;;;;;;4386083;28;658654;-69
2022/09/04 01:25:56;;;;;;;8.13;4.97;;;12.40;99.90;;;;;;4368603;28;657431;-69
2022/09/04 01:28:53;;;;;;;8.97;5.70;;;12.30;99.90;;;;;;4386906;28;657984;-69
2022/09/04 01:31:44;;;;;;;9.47;5.47;;;12.30;99.90;;;;;;4378770;28;658777;-68
2022/09/04 01:34:38;;;;;;;7.70;5.50;;;12.30;99.90;;;;;;4387285;28;657498;-69
2022/09/04 01:37:30;;;;;;;8.60;5.20;;;12.30;99.90;;;;;;4371395;28;658097;-66
2022/09/04 01:40:23;;;;;;;7.40;4.85;;;12.30;99.90;;;;;;4381076;28;659233;-69
2022/09/04 01:43:13;;;;;;;7.83;5.23;;;12.20;99.90;;;;;;4388836;28;657652;-66
2022/09/04 01:46:28;;;;;;;9.33;5.23;;;12.20;99.90;;;;;;4401909;28;658080;-67
2022/09/04 01:49:24;;;;;;;7.37;5.03;;;12.20;99.90;;;;;;4375108;28;658102;-66
2022/09/04 01:52:21;;;;;;;5.47;4.23;;;12.20;99.90;;;;;;4387584;28;657078;-69
2022/09/04 01:55:13;;;;;;;6.23;4.90;;;12.10;99.90;;;;;;4384394;28;658309;-69
2022/09/04 01:58:07;;;;;;;7.53;5.40;;;12.10;99.90;;;;;;4362391;28;657716;-69
2022/09/04 02:01:00;;;;;;;5.60;4.73;;;12.10;99.90;;;;;;4381884;28;657457;-67
2022/09/04 02:03:51;;;;;;;8.13;5.07;;;12.00;99.90;;;;;;4393545;28;657998;-69
2022/09/04 02:06:41;;;;;;;7.20;5.17;;;11.90;99.90;;;;;;4383239;28;657515;-69
2022/09/04 02:09:34;;;;;;;6.23;5.07;;;11.90;99.90;;;;;;4388580;28;659014;-70
2022/09/04 02:12:26;;;;;;;6.10;4.90;;;12.00;99.90;;;;;;4364031;28;657960;-69
2022/09/04 02:15:16;;;;;;;5.93;5.00;;;11.90;99.90;;;;;;4386901;28;658272;-68
2022/09/04 02:18:10;;;;;;;6.75;5.07;;;11.90;99.90;;;;;;4385362;28;658798;-69
2022/09/04 02:20:59;;;;;;;6.57;5.10;;;11.80;99.90;;;;;;4388910;28;657719;-69
2022/09/04 02:23:50;;;;;;;7.63;5.50;;;11.80;99.90;;;;;;4387525;28;658282;-69
2022/09/04 02:26:40;;;;;;;6.00;4.67;;;11.70;99.90;;;;;;4387222;28;658196;-69
2022/09/04 02:29:30;;;;;;;8.13;5.60;;;11.70;99.90;;;;;;4391296;28;658110;-69
2022/09/04 02:32:19;;;;;;;8.17;6.33;;;11.70;99.90;;;;;;4390202;28;658315;-69
2022/09/04 02:35:13;;;;;;;7.87;5.60;;;11.70;99.90;;;;;;4389859;28;658170;-69
2022/09/04 02:38:05;;;;;;;8.17;6.23;;;11.60;99.90;;;;;;4366046;28;658437;-66
2022/09/04 02:40:55;;;;;;;9.68;5.70;;;11.60;99.90;;;;;;4374506;28;658540;-69
2022/09/04 02:43:48;;;;;;;10.33;5.70;;;11.50;99.90;;;;;;4368684;28;658785;-69
2022/09/04 02:46:40;;;;;;;7.87;6.00;;;11.50;99.90;;;;;;4358652;28;658389;-66
2022/09/04 02:49:34;;;;;;;8.97;6.10;;;11.50;99.90;;;;;;4370420;28;659052;-69
2022/09/04 02:52:36;;;;;;;9.23;6.10;;;11.60;99.90;;;;;;4344966;28;658770;-69
2022/09/04 02:55:30;;;;;;;8.13;6.23;;;11.60;99.90;;;;;;4367838;28;658170;-69
2022/09/04 02:58:24;;;;;;;11.07;6.10;;;11.60;99.90;;;;;;4367012;28;657901;-69
2022/09/04 03:01:12;;;;;;;7.33;6.17;;;11.70;99.90;;;;;;4366787;28;661533;-70
2022/09/04 03:04:02;;;;;;;8.03;6.00;;;11.70;99.90;;;;;;4389318;28;657196;-69
2022/09/04 03:06:51;;;;;;;7.07;5.70;;;11.80;99.90;;;;;;4371096;28;659145;-69
2022/09/04 03:09:41;;;;;;;10.03;6.27;;;11.80;99.90;;;;;;4369760;28;659032;-69
2022/09/04 03:12:32;;;;;;;8.90;6.37;;;11.80;99.90;;;;;;4367059;28;659328;-69
2022/09/04 03:15:22;;;;;;;9.13;6.23;;;11.90;99.90;;;;;;4367521;28;658132;-69
2022/09/04 03:18:14;;;;;;;8.67;6.23;;;11.90;99.90;;;;;;4367915;28;657220;-69
2022/09/04 03:21:06;;;;;;;9.50;7.03;;;11.90;99.90;;;;;;4373542;28;657251;-69
2022/09/04 03:23:55;;;;;;;9.90;6.80;;;11.90;99.90;;;;;;4369872;28;658186;-69
2022/09/04 03:26:45;;;;;;;8.53;6.20;;;11.90;99.90;;;;;;4369516;28;658428;-69
2022/09/04 03:29:35;;;;;;;7.80;6.13;;;11.90;99.90;;;;;;4365595;28;659105;-69
2022/09/04 03:32:26;;;;;;;10.57;6.17;;;11.90;99.90;;;;;;4364770;28;658990;-69
2022/09/04 03:35:17;;;;;;;8.60;6.27;;;12.00;99.90;;;;;;4365775;28;659215;-69
2022/09/04 03:38:14;;;;;;;8.47;6.43;;;12.00;99.90;;;;;;4366944;28;657576;-69
2022/09/04 03:41:07;;;;;;;9.23;6.67;;;12.00;99.90;;;;;;4336779;28;659048;-69
2022/09/04 03:44:02;;;;;;;8.93;6.67;;;12.00;99.90;;;;;;4365524;28;658207;-69
2022/09/04 03:46:56;;;;;;;11.40;6.90;;;11.90;99.90;;;;;;4367104;28;658191;-67
2022/09/04 03:49:50;;;;;;;10.63;6.83;;;11.90;99.90;;;;;;4367192;28;659591;-69
2022/09/04 03:52:44;;;;;;;10.80;6.33;;;12.00;99.90;;;;;;4350287;28;660135;-69
2022/09/04 03:56:12;;;;;;;8.53;6.90;;;12.00;99.90;;;;;;4369709;28;658903;-69
2022/09/04 03:59:03;;;;;;;8.67;6.57;;;12.00;99.90;;;;;;4369632;28;657432;-69
2022/09/04 04:01:52;;;;;;;10.30;6.23;;;12.00;99.90;;;;;;4351355;28;658137;-68
2022/09/04 04:05:04;;;;;;;8.77;6.43;;;12.00;99.90;;;;;;4389739;28;659114;-69
2022/09/04 04:07:58;;;;;;;7.90;6.40;;;12.00;99.90;;;;;;4330640;28;657839;-69
2022/09/04 04:10:51;;;;;;;11.23;6.90;;;12.00;99.90;;;;;;4349971;28;658028;-68
2022/09/04 04:14:05;;;;;;;8.53;6.40;;;12.00;99.90;;;;;;4366606;28;659681;-69
2022/09/04 04:16:58;;;;;;;9.17;6.30;;;12.10;99.90;;;;;;4346232;28;658945;-69
2022/09/04 04:19:52;;;;;;;9.27;6.47;;;12.10;99.90;;;;;;4348364;28;658272;-69
2022/09/04 04:22:53;;;;;;;8.97;6.90;;;12.10;99.90;;;;;;4370735;28;657970;-69
2022/09/04 04:25:50;;;;;;;14.47;7.53;;;12.10;99.90;;;;;;4349458;28;658286;-68
2022/09/04 04:28:55;;;;;;;10.93;6.90;;;12.10;99.90;;;;;;4345093;28;660406;-69
2022/09/04 04:32:09;;;;;;;11.57;6.80;;;12.00;99.90;;;;;;4368139;28;659048;-69
2022/09/04 04:35:02;;;;;;;8.73;6.37;;;12.00;99.90;;;;;;4367473;28;658662;-69
2022/09/04 04:37:58;;;;;;;7.93;6.30;;;12.00;99.90;;;;;;4366201;28;657918;-67
2022/09/04 04:41:09;;;;;;;11.17;7.03;;;12.00;99.90;;;;;;4363602;28;657726;-67
2022/09/04 04:44:02;;;;;;;10.90;6.30;;;12.00;99.90;;;;;;4385104;28;658595;-69
2022/09/04 04:46:56;;;;;;;10.97;6.60;;;12.00;99.90;;;;;;4403393;28;659191;-67
2022/09/04 04:49:55;;;;;;;9.63;6.87;;;12.00;99.90;;;;;;4385699;28;658898;-69
2022/09/04 04:52:48;;;;;;;9.13;6.73;;;12.00;99.90;;;;;;4362888;28;658480;-69
2022/09/04 04:55:38;;;;;;;9.83;6.00;;;12.00;99.90;;;;;;4388448;28;657653;-68
2022/09/04 04:58:37;;;;;;;9.90;6.23;;;12.00;99.90;;;;;;4384204;28;657337;-67
2022/09/04 05:01:33;;;;;;;9.80;6.57;;;11.90;99.90;;;;;;4385653;28;657431;-69
2022/09/04 05:04:28;;;;;;;10.53;6.93;;;11.90;99.90;;;;;;4361423;28;657991;-68
2022/09/04 05:07:21;;;;;;;9.03;6.50;;;12.00;99.90;;;;;;4363678;28;659356;-68
2022/09/04 05:10:12;;;;;;;8.30;6.30;;;12.10;99.90;;;;;;4382923;28;657851;-69
2022/09/04 05:13:03;;;;;;;8.67;6.23;;;12.00;99.90;;;;;;4381830;28;657458;-69
2022/09/04 05:15:54;;;;;;;9.83;6.23;;;12.00;99.90;;;;;;4364775;28;658615;-68
2022/09/04 05:18:45;;;;;;;9.63;6.23;;;12.10;99.90;;;;;;4389361;28;657975;-69
2022/09/04 05:21:36;;;;;;;11.30;6.73;;;12.10;99.90;;;;;;4387936;28;658033;-68
2022/09/04 05:24:27;;;;;;;8.13;6.33;;;12.00;99.90;;;;;;4383389;28;659520;-69
2022/09/04 05:27:47;;;;;;;10.07;6.03;;;12.00;99.90;;;;;;4386367;28;657526;-69
2022/09/04 05:30:39;;;;;;;9.80;6.67;;;12.00;99.90;;;;;;4387057;28;659023;-69
2022/09/04 05:33:30;;;;;;;12.80;6.82;;;12.00;99.90;;;;;;4386497;28;657520;-69
2022/09/04 05:36:20;;;;;;;7.60;6.10;;;12.10;99.90;;;;;;4385806;28;660627;-69
2022/09/04 05:39:12;;;;;;;10.97;6.93;;;12.10;99.90;;;;;;4395284;28;657312;-69
2022/09/04 05:42:31;;;;;;;10.70;7.20;;;12.10;99.90;;;;;;4385208;28;658882;-69
2022/09/04 05:45:23;;;;;;;9.60;7.23;;;12.10;99.90;;;;;;4389025;28;659232;-69
2022/09/04 05:48:14;;;;;;;9.67;6.80;;;12.10;99.90;;;;;;4387846;28;657441;-67
2022/09/04 05:51:21;;;;;;;9.20;6.67;;;12.20;99.90;;;;;;4398498;28;657920;-68
2022/09/04 05:54:27;;;;;;;10.37;6.87;;;12.20;99.90;;;;;;4387009;28;657950;-69
2022/09/04 05:57:25;;;;;;;11.87;6.33;;;12.20;99.90;;;;;;4393089;28;659236;-67
2022/09/04 06:00:13;;;;;;;10.00;6.67;;;12.30;99.90;;;;;;4357695;28;659376;-69
2022/09/04 06:03:29;;;;;;;10.00;6.23;;;12.30;99.90;;;;;;4396877;28;658936;-68
2022/09/04 06:06:21;;;;;;;7.87;5.97;;;12.30;99.90;;;;;;4373015;28;658515;-69
2022/09/04 06:09:26;;;;;;;7.60;5.63;;;12.30;99.90;;;;;;4383937;28;658070;-69
2022/09/04 06:12:35;;;;;;;9.57;6.00;;;12.40;99.90;;;;;;4386756;28;657603;-69
2022/09/04 06:15:33;;;;;;;8.97;6.23;;;12.50;99.90;;;;;;4370980;28;657832;-69
2022/09/04 06:18:43;;;;;;;8.43;5.40;;;12.60;99.90;;;;;;4374869;28;657932;-68
2022/09/04 06:22:08;;;;;;;7.47;5.30;;;12.60;99.90;;;;;;4374940;28;657671;-67
2022/09/04 06:25:12;;;;;;;9.07;6.30;;;12.70;99.90;;;;;;4338428;28;658354;-67
2022/09/04 06:28:08;;;;;;;8.90;5.33;;;12.80;99.90;;;;;;4384948;28;658073;-68
2022/09/04 06:30:59;;;;;;;7.57;5.43;;;12.90;99.90;;;;;;4373419;28;657914;-68
2022/09/04 06:33:52;;;;;;;8.07;5.40;;;13.10;99.90;;;;;;4397668;28;657505;-69
2022/09/04 06:36:49;;;;;;;7.27;5.10;;;13.20;99.90;;;;;;4385134;28;657547;-67
2022/09/04 06:39:45;;;;;;;6.53;4.67;;;13.20;99.90;;;;;;4385947;28;657608;-70
2022/09/04 06:42:41;;;;;;;6.50;4.83;;;13.40;99.90;;;;;;4393395;28;657525;-69
2022/09/04 06:45:35;;;;;;;6.30;4.30;;;13.50;99.90;;;;;;4391874;28;657665;-68
2022/09/04 06:48:28;;;;;;;6.50;4.63;;;13.50;99.90;;;;;;4371454;28;658315;-68
2022/09/04 06:51:22;;;;;;;6.33;4.50;;;13.70;99.90;;;;;;4375062;28;657184;-67
2022/09/04 06:54:15;;;;;;;6.80;4.33;;;13.80;99.90;;;;;;4385638;28;658257;-68
2022/09/04 06:57:11;;;;;;;6.03;3.97;;;14.00;99.90;;;;;;4391471;28;657467;-68
2022/09/04 07:00:07;;;;;;;5.10;4.00;;;14.10;99.90;;;;;;4389851;28;657673;-69
2022/09/04 07:03:02;;;;;;;5.07;3.90;;;14.40;99.90;;;;;;4386061;28;657475;-69
2022/09/04 07:05:54;;;;;;;4.87;3.80;;;14.50;99.90;;;;;;4382849;28;657837;-67
2022/09/04 07:08:53;;;;;;;5.07;3.90;;;14.60;99.90;;;;;;4388036;28;657406;-69
2022/09/04 07:11:50;;;;;;;5.47;3.63;;;14.70;99.90;;;;;;4366083;28;657698;-67
2022/09/04 07:14:43;;;;;;;5.27;3.73;;;14.80;99.90;;;;;;4364937;28;658364;-69
2022/09/04 07:17:33;;;;;;;4.30;3.67;;;14.90;99.90;;;;;;4384880;28;657997;-69
2022/09/04 07:20:21;;;;;;;5.00;3.53;;;15.00;99.90;;;;;;4391264;28;657757;-69
2022/09/04 07:23:16;;;;;;;5.83;3.50;;;15.10;99.90;;;;;;4404188;28;658272;-69
2022/09/04 07:26:08;;;;;;;5.13;3.83;;;15.10;99.90;;;;;;4389743;28;658505;-68
2022/09/04 07:29:22;;;;;;;4.10;3.40;;;15.20;99.90;;;;;;4365011;28;657907;-67
2022/09/04 07:32:11;;;;;;;5.50;3.50;;;15.40;99.90;;;;;;4405925;28;657343;-67
2022/09/04 07:35:02;;;;;;;3.27;2.80;;;15.50;99.90;;;;;;4412335;28;658505;-69
2022/09/04 07:37:57;;;;;;;6.10;2.90;;;15.50;99.90;;;;;;4383686;28;657239;-69
2022/09/04 07:40:46;;;;;;;3.53;2.83;;;15.30;99.90;;;;;;4376837;28;657392;-69
2022/09/04 07:43:38;;;;;;;5.77;2.80;;;15.70;99.90;;;;;;4382182;28;659298;-69
2022/09/04 07:46:29;;;;;;;5.33;2.70;;;16.20;99.90;;;;;;4369836;28;657495;-67
2022/09/04 07:49:18;;;;;;;5.03;2.63;;;16.80;99.90;;;;;;4386696;28;657574;-70
2022/09/04 07:52:13;;;;;;;2.47;2.27;;;17.20;99.90;;;;;;4388701;28;657204;-67
2022/09/04 07:55:21;;;;;;;3.17;2.50;;;17.40;99.90;;;;;;4367685;28;658359;-67
2022/09/04 07:58:48;;;;;;;3.03;2.72;;;17.40;99.90;;;;;;4385986;28;658147;-69
2022/09/04 08:01:52;;;;;;;5.20;3.10;;;17.20;99.90;;;;;;4368183;28;657316;-67
2022/09/04 08:04:50;;;;;;;4.57;2.80;;;17.20;99.90;;;;;;4384593;28;657964;-69
2022/09/04 08:08:21;;;;;;;4.27;2.40;;;17.40;99.90;;;;;;4384693;28;658315;-70
2022/09/04 08:11:34;;;;;;;5.43;2.30;;;17.60;99.90;;;;;;4386739;28;658568;-70
2022/09/04 08:14:26;;;;;;;2.67;2.40;;;18.20;99.90;;;;;;4360241;28;658252;-70
2022/09/04 08:17:44;;;;;;;4.93;2.30;;;18.60;99.90;;;;;;4383624;28;658287;-70
2022/09/04 08:20:42;;;;;;;2.73;2.33;;;19.00;99.90;;;;;;4391980;28;657714;-70
2022/09/04 08:23:46;;;;;;;5.23;2.63;;;19.40;99.90;;;;;;4387434;28;657574;-69
2022/09/04 08:26:38;;;;;;;3.43;2.60;;;19.10;99.90;;;;;;4385535;28;657914;-69
2022/09/04 08:29:39;;;;;;;3.93;2.57;;;19.10;99.90;;;;;;4374777;28;658391;-69
2022/09/04 08:33:09;;;;;;;3.07;2.10;;;19.60;99.90;;;;;;4361365;28;658063;-70
2022/09/04 08:35:57;;;;;;;2.73;2.33;;;19.30;99.90;;;;;;4355282;28;657483;-70
2022/09/04 08:38:59;;;;;;;3.33;2.30;;;18.90;99.90;;;;;;4407502;28;657747;-68
2022/09/04 08:42:10;;;;;;;3.73;2.40;;;18.90;99.90;;;;;;4353990;28;657948;-70
2022/09/04 08:45:26;;;;;;;5.13;2.07;;;18.70;99.90;;;;;;4385406;28;658081;-69
2022/09/04 08:48:31;;;;;;;2.50;2.00;;;18.50;99.90;;;;;;4324049;28;657589;-71
2022/09/04 08:51:46;;;;;;;2.50;2.27;;;18.30;99.90;;;;;;4384684;28;657966;-70
2022/09/04 08:54:48;;;;;;;3.80;2.10;;;18.20;99.90;;;;;;4383643;28;657739;-69
2022/09/04 08:58:03;;;;;;;6.67;2.30;;;18.20;99.90;;;;;;4361683;28;658238;-68
2022/09/04 09:01:03;;;;;;;2.97;2.27;;;18.10;99.90;;;;;;4367071;28;658487;-67
2022/09/04 09:04:02;;;;;;;2.47;2.00;;;18.10;99.90;;;;;;4369556;28;658195;-67
2022/09/04 09:07:06;;;;;;;5.37;2.17;;;17.80;99.90;;;;;;4389467;28;657259;-69
2022/09/04 09:10:13;;;;;;;2.80;2.33;;;17.70;99.90;;;;;;4384450;28;657735;-70
2022/09/04 09:13:30;;;;;;;2.30;2.10;;;17.70;99.90;;;;;;4363423;28;657786;-69
2022/09/04 09:16:22;;;;;;;2.67;2.40;;;17.60;99.90;;;;;;4360038;28;658061;-69
2022/09/04 09:19:21;;;;;;;4.30;2.73;;;17.60;99.90;;;;;;4383983;28;657649;-69
2022/09/04 09:22:10;;;;;;;4.23;2.23;;;17.60;99.90;;;;;;4380602;28;658121;-69
2022/09/04 09:25:19;;;;;;;3.23;2.63;;;17.70;99.90;;;;;;4385181;28;658855;-69
2022/09/04 09:28:41;;;;;;;2.97;2.67;;;17.80;99.90;;;;;;4389479;28;657451;-69
2022/09/04 09:32:06;;;;;;;4.00;2.73;;;17.60;99.90;;;;;;4380170;28;657490;-68
2022/09/04 09:35:24;;;;;;;4.13;3.10;;;17.20;99.90;;;;;;4385319;28;657527;-69
2022/09/04 09:38:50;;;;;;;3.27;2.50;;;17.50;99.90;;;;;;4387877;28;657545;-69
2022/09/04 09:41:59;;;;;;;3.33;2.50;;;17.50;99.90;;;;;;4291220;28;658375;-70
2022/09/04 09:45:23;;;;;;;3.70;2.80;;;17.60;99.90;;;;;;4358212;28;658171;-68
2022/09/04 09:48:54;;;;;;;3.47;2.90;;;17.70;99.90;;;;;;4376961;28;657836;-67
2022/09/04 09:51:59;;;;;;;3.57;3.00;;;17.90;99.90;;;;;;4351485;28;658074;-68
2022/09/04 09:55:37;;;;;;;8.07;2.50;;;18.10;99.90;;;;;;4384170;28;657609;-70
2022/09/04 09:58:54;;;;;;;3.70;2.77;;;18.60;99.90;;;;;;4308027;28;657893;-67
2022/09/04 10:01:58;;;;;;;3.53;2.47;;;18.90;99.90;;;;;;4302247;28;657653;-70
2022/09/04 10:05:05;;;;;;;3.43;2.47;;;19.50;99.90;;;;;;4361478;28;658046;-68
2022/09/04 10:08:26;;;;;;;2.80;2.50;;;19.90;99.90;;;;;;4322872;28;657813;-70
2022/09/04 10:11:35;;;;;;;3.07;2.50;;;20.40;99.90;;;;;;4381440;28;658032;-70
2022/09/04 10:14:56;;;;;;;5.27;2.50;;;21.10;99.90;;;;;;4329593;28;659017;-69
2022/09/04 10:18:16;;;;;;;3.80;2.70;;;21.80;99.90;;;;;;4377749;28;657681;-69
2022/09/04 10:21:43;;;;;;;3.38;2.70;;;21.40;99.90;;;;;;4386273;28;658213;-69
2022/09/04 10:25:01;;;;;;;3.57;2.73;;;21.10;99.90;;;;;;4358561;28;657438;-67
2022/09/04 10:28:00;;;;;;;3.43;2.63;;;21.10;99.90;;;;;;4387941;28;657394;-69
2022/09/04 10:31:18;;;;;;;2.70;2.40;;;20.80;99.90;;;;;;4365006;28;658624;-70
2022/09/04 10:34:13;;;;;;;3.80;2.53;;;20.80;99.90;;;;;;4360231;28;657247;-68
2022/09/04 10:37:08;;;;;;;3.47;2.53;;;20.70;99.90;;;;;;4377058;28;657496;-69
2022/09/04 10:43:22;;;;;;;4.73;2.80;;;19.90;99.90;;;;;;4387142;28;657856;-69
2022/09/04 10:46:11;;;;;;;5.17;2.50;;;19.80;99.90;;;;;;4389418;28;657862;-70
2022/09/04 10:49:25;;;;;;;3.07;2.67;;;19.80;99.90;;;;;;4388739;28;657790;-69
2022/09/04 10:52:46;;;;;;;5.53;3.00;;;19.50;99.90;;;;;;4361808;28;658621;-69
2022/09/04 10:55:42;;;;;;;3.27;2.90;;;19.30;99.90;;;;;;4385424;28;658400;-69
2022/09/04 10:58:38;;;;;;;3.23;2.93;;;19.20;99.90;;;;;;4387302;28;657441;-68
2022/09/04 11:01:41;;;;;;;3.57;3.07;;;19.10;99.90;;;;;;4369823;28;658387;-69
2022/09/04 11:05:02;;;;;;;4.82;3.25;;;19.30;99.90;;;;;;4386003;28;658141;-68
2022/09/04 11:08:00;;;;;;;3.97;3.50;;;19.20;99.90;;;;;;4365826;28;658756;-70
2022/09/04 11:10:56;;;;;;;4.70;3.20;;;19.00;99.90;;;;;;4364478;28;657857;-70
2022/09/04 11:14:07;;;;;;;5.23;3.50;;;18.90;99.90;;;;;;4386249;28;658103;-69
2022/09/04 11:17:15;;;;;;;5.73;3.50;;;18.90;99.90;;;;;;4388031;28;659487;-69
2022/09/04 11:20:30;;;;;;;4.77;3.63;;;18.70;99.90;;;;;;4392232;28;657671;-70
2022/09/04 11:23:51;;;;;;;5.33;3.70;;;18.70;99.90;;;;;;4361554;28;658454;-70
2022/09/04 11:27:12;;;;;;;5.30;4.00;;;18.70;99.90;;;;;;4383841;28;658498;-70
2022/09/04 11:30:06;;;;;;;5.45;3.80;;;19.00;99.90;;;;;;4386943;28;657580;-69
2022/09/04 11:33:47;;;;;;;6.33;3.87;;;19.00;99.90;;;;;;4387352;28;657496;-69
2022/09/04 11:36:52;;;;;;;5.93;3.80;;;19.10;99.90;;;;;;4315781;28;657323;-69
2022/09/04 11:40:13;;;;;;;5.27;4.30;;;19.20;99.90;;;;;;4321923;28;658690;-70
2022/09/04 11:43:08;;;;;;;4.90;3.87;;;19.40;99.90;;;;;;4324383;28;657708;-67
2022/09/04 11:46:30;;;;;;;5.13;3.60;;;19.40;99.90;;;;;;4314152;28;657751;-69
2022/09/04 11:49:48;;;;;;;6.40;3.70;;;19.00;99.90;;;;;;4369158;28;658202;-70
2022/09/04 11:53:11;;;;;;;5.27;3.90;;;19.00;99.90;;;;;;4364921;28;658034;-69
2022/09/04 11:56:08;;;;;;;6.53;4.00;;;18.70;99.90;;;;;;4387352;28;657858;-70
2022/09/04 11:59:06;;;;;;;6.70;3.97;;;18.70;99.90;;;;;;4367524;28;658629;-68
2022/09/04 12:02:08;;;;;;;5.93;4.13;;;18.30;99.90;;;;;;4388320;28;657684;-69
2022/09/04 12:05:03;;;;;;;5.87;3.80;;;18.00;99.90;;;;;;4367796;28;657460;-68
2022/09/04 12:08:03;;;;;;;5.77;4.10;;;17.70;99.90;;;;;;4367758;28;659621;-68
2022/09/04 12:10:59;;;;;;;7.50;3.70;;;17.80;99.90;;;;;;4367273;28;657974;-67
2022/09/04 12:13:54;;;;;;;6.20;3.87;;;17.90;99.90;;;;;;4363200;28;658155;-68
2022/09/04 12:17:14;;;;;;;5.30;3.90;;;17.80;99.90;;;;;;4388483;28;657251;-69
2022/09/04 12:20:50;;;;;;;5.43;4.07;;;17.80;99.90;;;;;;4352160;28;657782;-69
2022/09/04 12:24:13;;;;;;;5.32;4.63;;;17.60;99.90;;;;;;4359979;28;657913;-67
2022/09/04 12:27:34;;;;;;;6.80;4.63;;;17.40;99.90;;;;;;4347613;28;657966;-67
2022/09/04 12:30:22;;;;;;;6.40;4.70;;;17.20;99.90;;;;;;4350657;28;657606;-70
2022/09/04 12:33:27;;;;;;;7.73;4.90;;;16.90;99.90;;;;;;4405903;28;657740;-70
2022/09/04 12:36:58;;;;;;;5.57;4.83;;;17.00;99.90;;;;;;4384700;28;658159;-71
2022/09/04 12:40:11;;;;;;;9.47;4.80;;;16.80;99.90;;;;;;4368925;28;657873;-66
2022/09/04 12:43:15;;;;;;;7.10;4.83;;;16.70;99.90;;;;;;4383033;28;657640;-70
2022/09/04 12:46:09;;;;;;;6.13;5.17;;;16.50;99.90;;;;;;4384801;28;657971;-69
2022/09/04 12:49:06;;;;;;;7.87;5.13;;;16.40;99.90;;;;;;4361331;28;658114;-70
2022/09/04 12:52:00;;;;;;;6.67;5.23;;;16.50;99.90;;;;;;4384779;28;657642;-69
2022/09/04 12:54:51;;;;;;;7.30;6.00;;;16.60;99.90;;;;;;4357402;28;658363;-69
2022/09/04 12:57:44;;;;;;;7.23;5.97;;;16.60;99.90;;;;;;4385054;28;658608;-71
2022/09/04 13:00:39;;;;;;;7.03;5.90;;;16.60;99.90;;;;;;4357221;28;657720;-70
2022/09/04 13:03:28;;;;;;;7.00;5.43;;;16.70;99.90;;;;;;4387731;28;658321;-70
2022/09/04 13:06:21;;;;;;;6.20;5.20;;;16.80;99.90;;;;;;4394927;28;657589;-68
2022/09/04 13:09:14;;;;;;;8.13;5.47;;;16.80;99.90;;;;;;4383741;28;658038;-70
2022/09/04 13:12:08;;;;;;;8.33;6.07;;;16.90;99.90;;;;;;4363433;28;658922;-68
2022/09/04 13:15:18;;;;;;;11.27;6.20;;;16.80;99.90;;;;;;4363886;28;657279;-67
2022/09/04 13:18:13;;;;;;;8.00;6.47;;;16.50;99.90;;;;;;4357016;28;659196;-67
2022/09/04 13:21:05;;;;;;;9.73;6.77;;;16.40;99.90;;;;;;4379338;28;657706;-67
2022/09/04 13:24:24;;;;;;;8.27;6.33;;;16.50;99.90;;;;;;4384923;28;658642;-69
2022/09/04 13:27:25;;;;;;;10.50;6.30;;;16.40;99.90;;;;;;4385974;28;657835;-69
2022/09/04 13:30:20;;;;;;;8.57;6.53;;;16.60;99.90;;;;;;4362147;28;659345;-67
2022/09/04 13:33:23;;;;;;;11.88;7.85;;;16.60;99.90;;;;;;4362342;28;657922;-67
2022/09/04 13:36:20;;;;;;;10.00;7.37;;;16.80;99.90;;;;;;4367791;28;659126;-67
2022/09/04 13:39:27;;;;;;;11.57;7.07;;;17.00;99.90;;;;;;4360421;28;659047;-70
2022/09/04 13:42:38;;;;;;;8.83;6.97;;;17.10;99.90;;;;;;4380921;28;659254;-71
2022/09/04 13:45:25;;;;;;;7.17;6.10;;;17.40;99.90;;;;;;4367021;28;657906;-67
2022/09/04 13:48:13;;;;;;;12.83;6.37;;;17.70;99.90;;;;;;4402123;28;658028;-70
2022/09/04 13:51:02;;;;;;;9.27;6.37;;;18.30;99.90;;;;;;4382032;28;658756;-69
2022/09/04 13:53:59;;;;;;;8.87;6.37;;;19.20;99.90;;;;;;4397447;28;657584;-68
2022/09/04 13:56:50;;;;;;;7.03;5.70;;;19.50;99.90;;;;;;4366330;28;658718;-69
2022/09/04 13:59:37;;;;;;;9.73;5.87;;;20.10;99.90;;;;;;4389313;28;658259;-69
2022/09/04 14:02:26;;;;;;;7.70;5.60;;;20.90;99.90;;;;;;4408780;28;657804;-70
2022/09/04 14:05:15;;;;;;;9.67;5.83;;;21.40;99.90;;;;;;4387761;28;658350;-69
2022/09/04 14:08:04;;;;;;;7.93;5.37;;;20.90;99.90;;;;;;4393670;28;658778;-70
2022/09/04 14:11:01;;;;;;;7.67;5.83;;;20.60;99.90;;;;;;4393284;28;657966;-69
2022/09/04 14:14:11;;;;;;;9.55;6.95;;;20.10;99.90;;;;;;4389041;28;657683;-70
2022/09/04 14:16:58;;;;;;;8.53;6.10;;;20.10;99.90;;;;;;4384347;28;657871;-69
2022/09/04 14:19:49;;;;;;;7.33;5.53;;;20.20;99.90;;;;;;4386617;28;657734;-70
2022/09/04 14:22:41;;;;;;;8.80;5.97;;;20.30;99.90;;;;;;4389580;28;657414;-69
2022/09/04 14:25:32;;;;;;;7.93;5.87;;;19.90;99.90;;;;;;4389479;28;658024;-70
2022/09/04 14:28:20;;;;;;;12.50;5.87;;;19.50;99.90;;;;;;4384853;28;658831;-69
2022/09/04 14:31:12;;;;;;;9.17;6.50;;;19.30;99.90;;;;;;4385893;28;660225;-69
2022/09/04 14:34:02;;;;;;;12.00;6.40;;;19.20;99.90;;;;;;4388308;28;657596;-69
2022/09/04 14:36:55;;;;;;;8.63;7.17;;;18.90;99.90;;;;;;4386348;28;658920;-69
2022/09/04 14:39:44;;;;;;;13.03;6.47;;;18.60;99.90;;;;;;4365773;28;658293;-69
2022/09/04 14:42:40;;;;;;;10.93;6.67;;;18.60;99.90;;;;;;4389292;28;658924;-68
2022/09/04 14:45:34;;;;;;;10.40;7.13;;;18.40;99.90;;;;;;4364140;28;658586;-69
2022/09/04 14:48:23;;;;;;;9.03;7.07;;;18.40;99.90;;;;;;4391563;28;659526;-69
2022/09/04 14:51:16;;;;;;;9.27;6.63;;;18.50;99.90;;;;;;4390662;28;657705;-68
2022/09/04 14:54:03;;;;;;;12.00;7.23;;;18.60;99.90;;;;;;4388864;28;658112;-69
2022/09/04 14:56:52;;;;;;;11.83;7.70;;;18.50;99.90;;;;;;4391014;28;658968;-67
2022/09/04 14:59:42;;;;;;;9.83;7.43;;;18.30;99.90;;;;;;4408262;28;658785;-70
2022/09/04 15:02:33;;;;;;;12.17;7.73;;;18.20;99.90;;;;;;4393341;28;658975;-67
2022/09/04 15:05:22;;;;;;;10.03;7.70;;;18.00;99.90;;;;;;4374354;28;658882;-68
2022/09/04 15:08:11;;;;;;;9.83;7.53;;;18.00;99.90;;;;;;4401874;28;658653;-66
2022/09/04 15:11:02;;;;;;;11.33;8.20;;;17.90;99.90;;;;;;4408615;28;657552;-69
2022/09/04 15:13:53;;;;;;;10.70;8.17;;;17.90;99.90;;;;;;4382298;28;659050;-67
2022/09/04 15:16:45;;;;;;;11.50;8.53;;;17.80;99.90;;;;;;4389856;28;658919;-69
2022/09/04 15:19:39;;;;;;;12.90;8.17;;;17.30;99.90;;;;;;4389909;28;659869;-69
2022/09/04 15:22:31;;;;;;;12.57;8.73;;;17.30;99.90;;;;;;4387683;28;660053;-67